Time;durP1;ratioP1;P1;durP2;ratioP2;P2;SDS_P1;SDS_P2;PMS_P1;PMS_P2;Temp;Humidity;BMP_temperature;BMP_pressure;BME280_temperature;BME280_humidity;BME280_pressure;Samples;Min_cycle;Max_cycle;Signal;HPM_P1;HPM_P2
2023/01/07 00:01:12;;;;;;;65.80;35.07;;;9.20;99.90;;;;;;5053119;28;20318;-82
2023/01/07 00:03:40;;;;;;;70.83;34.37;;;9.20;99.90;;;;;;5052604;28;20302;-85
2023/01/07 00:06:11;;;;;;;63.53;32.83;;;9.30;99.90;;;;;;5052044;28;20291;-84
2023/01/07 00:08:38;;;;;;;67.63;34.90;;;9.30;99.90;;;;;;5053474;28;20628;-86
2023/01/07 00:11:06;;;;;;;70.47;35.07;;;9.40;99.90;;;;;;5052952;28;20287;-83
2023/01/07 00:13:32;;;;;;;72.43;34.40;;;9.40;99.90;;;;;;5052958;28;20333;-83
2023/01/07 00:16:00;;;;;;;72.43;35.13;;;9.40;99.90;;;;;;5051907;28;20662;-83
2023/01/07 00:18:26;;;;;;;64.03;31.73;;;9.40;99.90;;;;;;5052692;28;20675;-84
2023/01/07 00:20:51;;;;;;;69.57;32.83;;;9.40;99.90;;;;;;5051996;28;20374;-84
2023/01/07 00:23:17;;;;;;;74.43;34.13;;;9.40;99.90;;;;;;5052889;28;20072;-83
2023/01/07 00:25:43;;;;;;;69.80;33.47;;;9.50;99.90;;;;;;5053188;28;20079;-84
2023/01/07 00:28:08;;;;;;;64.73;30.73;;;9.40;99.90;;;;;;5051672;28;20155;-83
2023/01/07 00:30:34;;;;;;;57.60;29.47;;;9.50;99.90;;;;;;5020766;28;20051;-83
2023/01/07 00:35:28;;;;;;;66.10;29.93;;;9.60;99.90;;;;;;5056329;28;20139;-82
2023/01/07 00:37:54;;;;;;;63.53;29.03;;;9.60;99.90;;;;;;5055181;28;20319;-82
2023/01/07 00:40:20;;;;;;;64.53;29.77;;;9.60;99.90;;;;;;5056736;28;20131;-82
2023/01/07 00:43:03;;;;;;;66.27;30.00;;;9.60;99.90;;;;;;5056308;28;20049;-82
2023/01/07 00:45:34;;;;;;;58.63;27.67;;;9.60;99.90;;;;;;5056199;28;20275;-82
2023/01/07 00:48:01;;;;;;;57.43;29.47;;;9.60;99.90;;;;;;5038686;28;20387;-81
2023/01/07 00:50:32;;;;;;;59.20;29.87;;;9.70;99.90;;;;;;5055074;28;20287;-81
2023/01/07 00:52:58;;;;;;;60.60;28.87;;;9.70;99.90;;;;;;5054927;28;20358;-81
2023/01/07 00:55:25;;;;;;;65.57;30.27;;;9.70;99.90;;;;;;5055941;28;20318;-81
2023/01/07 00:57:51;;;;;;;58.53;29.67;;;9.80;99.90;;;;;;5055219;28;20300;-81
2023/01/07 01:00:18;;;;;;;52.37;28.17;;;9.80;99.90;;;;;;5055864;28;20666;-81
2023/01/07 01:02:45;;;;;;;54.23;29.37;;;9.80;99.90;;;;;;5054886;28;20037;-81
2023/01/07 01:05:11;;;;;;;59.77;30.37;;;9.80;99.90;;;;;;5038205;28;20306;-81
2023/01/07 01:07:37;;;;;;;53.70;29.30;;;9.90;99.90;;;;;;5068138;28;20298;-81
2023/01/07 01:10:05;;;;;;;51.00;28.83;;;9.90;99.90;;;;;;5058100;28;20106;-81
2023/01/07 01:12:31;;;;;;;49.60;28.30;;;9.90;99.90;;;;;;5058258;28;20348;-81
2023/01/07 01:14:56;;;;;;;47.70;30.07;;;9.90;99.90;;;;;;5075697;28;20283;-81
2023/01/07 01:17:22;;;;;;;50.47;28.83;;;9.90;99.90;;;;;;5075801;28;20044;-81
2023/01/07 01:19:48;;;;;;;46.40;29.10;;;10.00;99.90;;;;;;5076010;28;20049;-81
2023/01/07 01:22:13;;;;;;;44.63;27.93;;;10.00;99.90;;;;;;5075964;28;20044;-81
2023/01/07 01:24:39;;;;;;;49.87;29.47;;;10.10;99.90;;;;;;5058366;28;20049;-81
2023/01/07 01:27:05;;;;;;;44.33;28.53;;;10.10;99.90;;;;;;5075091;28;20084;-81
2023/01/07 01:29:30;;;;;;;45.00;31.00;;;10.10;99.90;;;;;;5057473;28;20049;-81
2023/01/07 01:31:56;;;;;;;49.03;31.17;;;10.10;99.90;;;;;;5075433;28;20040;-81
2023/01/07 01:34:22;;;;;;;45.77;29.53;;;10.10;99.90;;;;;;5075180;28;20052;-81
2023/01/07 01:36:48;;;;;;;45.43;28.83;;;10.10;99.90;;;;;;5057071;28;20045;-81
2023/01/07 01:39:13;;;;;;;39.70;28.10;;;10.10;99.90;;;;;;5075069;28;20040;-81
2023/01/07 01:41:39;;;;;;;41.50;28.87;;;10.10;99.90;;;;;;5074715;28;20119;-81
2023/01/07 01:44:32;;;;;;;42.03;29.20;;;10.10;99.90;;;;;;5057491;28;20047;-81
2023/01/07 01:46:59;;;;;;;38.57;29.07;;;10.10;99.90;;;;;;5057519;28;20052;-82
2023/01/07 01:49:30;;;;;;;39.93;28.23;;;10.10;99.90;;;;;;5074854;28;20289;-82
2023/01/07 01:52:07;;;;;;;41.27;30.47;;;10.10;99.90;;;;;;5058050;28;20286;-81
2023/01/07 01:54:33;;;;;;;39.30;29.33;;;10.20;99.90;;;;;;5074815;28;20303;-82
2023/01/07 01:57:01;;;;;;;39.53;28.83;;;10.10;99.90;;;;;;5056759;28;20408;-82
2023/01/07 01:59:31;;;;;;;36.53;26.60;;;10.10;99.90;;;;;;5057927;28;20052;-82
2023/01/07 02:01:57;;;;;;;39.47;28.57;;;10.10;99.90;;;;;;5057044;28;20291;-82
2023/01/07 02:04:26;;;;;;;34.93;27.73;;;10.20;99.90;;;;;;5074607;28;20428;-82
2023/01/07 02:07:02;;;;;;;30.73;26.97;;;10.20;99.90;;;;;;5074566;28;20064;-83
2023/01/07 02:09:29;;;;;;;33.77;26.63;;;10.20;99.90;;;;;;5057149;28;20291;-81
2023/01/07 02:12:15;;;;;;;34.27;27.17;;;10.20;99.90;;;;;;5056934;28;20294;-82
2023/01/07 02:15:07;;;;;;;32.63;26.00;;;10.20;99.90;;;;;;5057154;28;20341;-81
2023/01/07 02:17:48;;;;;;;29.97;25.33;;;10.20;99.90;;;;;;5074102;28;20762;-82
2023/01/07 02:20:37;;;;;;;29.10;25.63;;;10.20;99.90;;;;;;5056748;28;20782;-81
2023/01/07 02:23:40;;;;;;;30.17;26.33;;;10.20;99.90;;;;;;5074206;28;20283;-82
2023/01/07 02:26:43;;;;;;;31.00;25.20;;;10.20;99.90;;;;;;5056841;28;20279;-82
2023/01/07 02:29:27;;;;;;;29.97;24.67;;;10.20;99.90;;;;;;5074100;28;20299;-82
2023/01/07 02:32:45;;;;;;;30.30;24.87;;;10.30;99.90;;;;;;5056504;28;20299;-82
2023/01/07 02:35:39;;;;;;;26.87;22.77;;;10.30;99.90;;;;;;5016362;28;20348;-82
2023/01/07 02:38:23;;;;;;;25.63;22.80;;;10.20;99.90;;;;;;5056297;28;20285;-82
2023/01/07 02:41:06;;;;;;;27.73;22.87;;;10.30;99.90;;;;;;5074072;28;20291;-82
2023/01/07 02:43:48;;;;;;;25.00;22.40;;;10.30;99.90;;;;;;5057123;28;20330;-83
2023/01/07 02:46:19;;;;;;;27.43;24.23;;;10.30;99.90;;;;;;5073908;28;20756;-83
2023/01/07 02:48:46;;;;;;;26.73;23.53;;;10.30;99.90;;;;;;5055986;28;20801;-83
2023/01/07 02:51:11;;;;;;;26.00;23.20;;;10.30;99.90;;;;;;5056222;28;20381;-82
2023/01/07 02:53:39;;;;;;;28.60;23.33;;;10.30;99.90;;;;;;5023157;28;20432;-82
2023/01/07 02:56:24;;;;;;;28.93;23.87;;;10.30;99.90;;;;;;5074267;28;20048;-83
2023/01/07 02:59:07;;;;;;;28.43;23.10;;;10.30;99.90;;;;;;5055854;28;20294;-83
2023/01/07 03:01:57;;;;;;;29.67;25.40;;;10.30;99.90;;;;;;5039449;28;20306;-82
2023/01/07 03:04:29;;;;;;;29.20;24.23;;;10.30;99.90;;;;;;5074239;28;20275;-82
2023/01/07 03:07:12;;;;;;;29.87;25.80;;;10.30;99.90;;;;;;5073256;28;20347;-82
2023/01/07 03:09:56;;;;;;;34.23;27.17;;;10.30;99.90;;;;;;5055738;28;20351;-82
2023/01/07 03:13:01;;;;;;;32.80;26.50;;;10.30;99.90;;;;;;5073585;28;20742;-82
2023/01/07 03:15:40;;;;;;;31.60;26.90;;;10.30;99.90;;;;;;5006396;28;20775;-82
2023/01/07 03:18:18;;;;;;;33.60;26.70;;;10.30;99.90;;;;;;5073530;28;20271;-82
2023/01/07 03:20:48;;;;;;;34.00;27.60;;;10.30;99.90;;;;;;5055524;28;20783;-82
2023/01/07 03:23:19;;;;;;;31.80;27.37;;;10.30;99.90;;;;;;5074030;28;20365;-82
2023/01/07 03:25:47;;;;;;;31.90;27.13;;;10.30;99.90;;;;;;5056013;28;20697;-82
2023/01/07 03:28:18;;;;;;;31.43;27.37;;;10.30;99.90;;;;;;5038940;28;20306;-82
2023/01/07 03:30:46;;;;;;;31.10;27.17;;;10.30;99.90;;;;;;5073251;28;20846;-82
2023/01/07 03:33:30;;;;;;;35.40;27.20;;;10.30;99.90;;;;;;5073337;28;20274;-82
2023/01/07 03:35:58;;;;;;;29.97;26.70;;;10.30;99.90;;;;;;5074238;28;20624;-81
2023/01/07 03:38:26;;;;;;;33.07;27.70;;;10.30;99.90;;;;;;5073331;28;20287;-82
2023/01/07 03:40:53;;;;;;;28.40;25.30;;;10.30;99.90;;;;;;5073791;28;20298;-81
2023/01/07 03:43:21;;;;;;;29.87;25.97;;;10.30;99.90;;;;;;5073201;28;20373;-82
2023/01/07 03:45:48;;;;;;;32.30;27.80;;;10.30;99.90;;;;;;5055753;28;20287;-82
2023/01/07 03:48:14;;;;;;;33.57;25.83;;;10.30;99.90;;;;;;5073648;28;20299;-82
2023/01/07 03:50:40;;;;;;;32.57;26.70;;;10.30;99.90;;;;;;5073158;28;20290;-82
2023/01/07 03:53:06;;;;;;;31.07;26.77;;;10.30;99.90;;;;;;5055398;28;20178;-82
2023/01/07 03:55:31;;;;;;;29.40;25.03;;;10.30;99.90;;;;;;5056152;28;20040;-82
2023/01/07 03:57:57;;;;;;;33.13;25.83;;;10.30;99.90;;;;;;5073411;28;20136;-82
2023/01/07 04:00:23;;;;;;;28.27;24.40;;;10.20;99.90;;;;;;5073026;28;20047;-81
2023/01/07 04:02:49;;;;;;;29.07;24.80;;;10.20;99.90;;;;;;5055318;28;20045;-82
2023/01/07 04:05:15;;;;;;;29.97;25.33;;;10.20;99.90;;;;;;5074955;28;20127;-82
2023/01/07 04:07:41;;;;;;;34.57;24.60;;;10.20;99.90;;;;;;5058839;28;20060;-82
2023/01/07 04:10:08;;;;;;;30.07;25.07;;;10.20;99.90;;;;;;5058983;28;20048;-83
2023/01/07 04:12:33;;;;;;;32.17;25.37;;;10.20;99.90;;;;;;5059047;28;20047;-82
2023/01/07 04:15:00;;;;;;;29.80;23.40;;;10.20;99.90;;;;;;5076758;28;20362;-83
2023/01/07 04:17:25;;;;;;;30.57;25.70;;;10.20;99.90;;;;;;5059311;28;20049;-83
2023/01/07 04:19:51;;;;;;;29.87;24.40;;;10.20;99.90;;;;;;5058726;28;20271;-83
2023/01/07 04:22:17;;;;;;;29.23;24.20;;;10.20;99.90;;;;;;5076528;28;20123;-83
2023/01/07 04:24:42;;;;;;;28.37;23.03;;;10.20;99.90;;;;;;5058708;28;20044;-83
2023/01/07 04:27:09;;;;;;;29.10;24.67;;;10.10;99.90;;;;;;5058859;28;20110;-83
2023/01/07 04:29:34;;;;;;;29.40;22.97;;;10.20;99.90;;;;;;5076665;28;20396;-83
2023/01/07 04:32:00;;;;;;;26.37;22.50;;;10.20;99.90;;;;;;5058481;28;20290;-83
2023/01/07 04:34:26;;;;;;;29.10;22.63;;;10.10;99.90;;;;;;5059570;28;20041;-84
2023/01/07 04:36:52;;;;;;;27.77;22.40;;;10.10;99.90;;;;;;5076228;28;20048;-83
2023/01/07 04:39:17;;;;;;;29.30;22.47;;;10.10;99.90;;;;;;5042206;28;20048;-83
2023/01/07 04:41:44;;;;;;;33.83;23.73;;;10.10;99.90;;;;;;5041813;28;20049;-84
2023/01/07 04:44:10;;;;;;;32.53;23.70;;;10.10;99.90;;;;;;5058386;28;20509;-83
2023/01/07 04:46:35;;;;;;;30.43;23.20;;;10.10;99.90;;;;;;5058468;28;20294;-82
2023/01/07 04:49:01;;;;;;;34.13;24.60;;;10.10;99.90;;;;;;5076365;28;20373;-83
2023/01/07 04:51:27;;;;;;;27.40;22.37;;;10.10;99.90;;;;;;5058113;28;20048;-83
2023/01/07 04:53:52;;;;;;;31.63;23.93;;;10.10;99.90;;;;;;5076001;28;20045;-83
2023/01/07 04:56:18;;;;;;;31.87;23.97;;;10.10;99.90;;;;;;5058102;28;20053;-84
2023/01/07 04:58:44;;;;;;;30.50;24.00;;;10.10;99.90;;;;;;5075926;28;20051;-84
2023/01/07 05:01:10;;;;;;;29.40;22.63;;;10.10;99.90;;;;;;5058217;28;20041;-84
2023/01/07 05:03:36;;;;;;;29.37;23.37;;;10.10;99.90;;;;;;5058005;28;20048;-83
2023/01/07 05:06:02;;;;;;;29.63;22.83;;;10.10;99.90;;;;;;5075798;28;20285;-84
2023/01/07 05:08:28;;;;;;;26.63;21.33;;;10.10;99.90;;;;;;5057196;28;20897;-84
2023/01/07 05:10:54;;;;;;;32.23;24.13;;;10.10;99.90;;;;;;5058252;28;20298;-84
2023/01/07 05:13:22;;;;;;;26.50;21.80;;;10.10;99.90;;;;;;5058249;28;20287;-84
2023/01/07 05:15:48;;;;;;;29.80;22.33;;;10.10;99.90;;;;;;5074912;28;20048;-84
2023/01/07 05:18:14;;;;;;;28.83;22.23;;;10.10;99.90;;;;;;5058680;28;20639;-84
2023/01/07 05:20:40;;;;;;;27.77;22.60;;;10.10;99.90;;;;;;5041293;28;20386;-83
2023/01/07 05:23:05;;;;;;;25.77;21.17;;;10.10;99.90;;;;;;5041227;28;20374;-84
2023/01/07 05:25:32;;;;;;;27.77;21.70;;;10.10;99.90;;;;;;5041970;28;20049;-83
2023/01/07 05:27:58;;;;;;;25.07;20.37;;;10.10;99.90;;;;;;5057564;28;20084;-82
2023/01/07 05:30:24;;;;;;;28.03;21.00;;;10.10;99.90;;;;;;5075343;28;20283;-83
2023/01/07 05:32:50;;;;;;;27.70;21.30;;;10.10;99.90;;;;;;5075241;28;20294;-83
2023/01/07 05:35:16;;;;;;;25.00;20.53;;;10.10;99.90;;;;;;5057558;28;20485;-83
2023/01/07 05:37:41;;;;;;;28.27;20.87;;;10.10;99.90;;;;;;5041675;28;20142;-83
2023/01/07 05:40:08;;;;;;;25.97;19.13;;;10.10;99.90;;;;;;5075764;28;20461;-83
2023/01/07 05:42:33;;;;;;;25.67;18.93;;;10.00;99.90;;;;;;5075392;28;20592;-84
2023/01/07 05:44:59;;;;;;;27.40;20.23;;;10.10;99.90;;;;;;5057309;28;20366;-83
2023/01/07 05:47:25;;;;;;;27.07;20.40;;;10.10;99.90;;;;;;5040655;28;20088;-82
2023/01/07 05:49:50;;;;;;;25.50;19.10;;;10.00;99.90;;;;;;5074926;28;20081;-83
2023/01/07 05:52:16;;;;;;;28.03;19.67;;;10.00;99.90;;;;;;5074980;28;20493;-83
2023/01/07 05:54:42;;;;;;;22.30;19.00;;;10.00;99.90;;;;;;5056917;28;20098;-83
2023/01/07 05:57:08;;;;;;;30.07;18.70;;;10.00;99.90;;;;;;5075579;28;20048;-83
2023/01/07 05:59:34;;;;;;;21.20;17.60;;;10.00;99.90;;;;;;5074536;28;20553;-83
2023/01/07 06:02:00;;;;;;;23.43;19.10;;;10.00;99.90;;;;;;5074712;28;20044;-83
2023/01/07 06:04:26;;;;;;;22.53;17.57;;;9.90;99.90;;;;;;5040119;28;20493;-83
2023/01/07 06:06:52;;;;;;;23.90;17.80;;;9.90;99.90;;;;;;5074353;28;20287;-82
2023/01/07 06:09:18;;;;;;;26.00;19.40;;;9.90;99.90;;;;;;5074574;28;20299;-83
2023/01/07 06:11:44;;;;;;;23.77;17.10;;;9.90;99.90;;;;;;5023971;28;20049;-82
2023/01/07 06:14:09;;;;;;;20.53;17.00;;;9.90;99.90;;;;;;5074536;28;20071;-82
2023/01/07 06:16:35;;;;;;;26.97;18.00;;;9.90;99.90;;;;;;5074418;28;20360;-83
2023/01/07 06:19:01;;;;;;;22.57;15.83;;;9.90;99.90;;;;;;5057046;28;20152;-82
2023/01/07 06:21:27;;;;;;;20.27;16.93;;;9.90;99.90;;;;;;5057098;28;20496;-84
2023/01/07 06:23:52;;;;;;;22.33;17.13;;;9.80;99.90;;;;;;5056900;28;20044;-84
2023/01/07 06:26:18;;;;;;;18.03;16.10;;;9.90;99.90;;;;;;5074253;28;20480;-82
2023/01/07 06:28:44;;;;;;;20.93;15.53;;;9.90;99.90;;;;;;5074044;28;20037;-82
2023/01/07 06:31:10;;;;;;;19.57;15.37;;;9.80;99.90;;;;;;5073817;28;20059;-82
2023/01/07 06:33:36;;;;;;;20.13;15.63;;;9.80;99.90;;;;;;5074078;28;20051;-82
2023/01/07 06:36:03;;;;;;;19.00;14.97;;;9.80;99.90;;;;;;5073991;28;20314;-82
2023/01/07 06:38:29;;;;;;;19.57;15.73;;;9.80;99.90;;;;;;5073973;28;20362;-82
2023/01/07 06:40:57;;;;;;;20.97;15.50;;;9.80;99.90;;;;;;5073965;28;20365;-82
2023/01/07 06:43:23;;;;;;;19.70;15.50;;;9.80;99.90;;;;;;5073960;28;20283;-82
2023/01/07 06:45:49;;;;;;;19.07;13.93;;;9.90;99.90;;;;;;5073925;28;20287;-81
2023/01/07 06:48:15;;;;;;;20.03;13.97;;;9.80;99.90;;;;;;5073751;28;20306;-82
2023/01/07 06:50:42;;;;;;;21.57;14.03;;;9.90;99.90;;;;;;5073863;28;20341;-82
2023/01/07 06:53:08;;;;;;;17.07;14.37;;;9.90;99.90;;;;;;5055890;28;20471;-82
2023/01/07 06:55:34;;;;;;;18.53;13.03;;;9.90;99.90;;;;;;5074275;28;20282;-82
2023/01/07 06:58:00;;;;;;;17.80;13.73;;;9.90;99.90;;;;;;5040298;28;20049;-82
2023/01/07 07:00:25;;;;;;;19.70;12.80;;;9.80;99.90;;;;;;5073690;28;20044;-82
2023/01/07 07:02:51;;;;;;;17.97;13.07;;;9.80;99.90;;;;;;5073656;28;20377;-82
2023/01/07 07:05:17;;;;;;;17.77;13.10;;;9.80;99.90;;;;;;5055963;28;20048;-82
2023/01/07 07:07:43;;;;;;;17.87;13.23;;;9.80;99.90;;;;;;5073699;28;20052;-82
2023/01/07 07:10:09;;;;;;;17.93;13.17;;;9.80;99.90;;;;;;5056667;28;20139;-83
2023/01/07 07:12:36;;;;;;;22.67;13.53;;;9.90;99.90;;;;;;5074136;28;20467;-83
2023/01/07 07:15:04;;;;;;;16.30;12.40;;;9.80;99.90;;;;;;5056585;28;20283;-82
2023/01/07 07:17:29;;;;;;;16.87;13.60;;;9.80;99.90;;;;;;5056383;28;20349;-83
2023/01/07 07:19:55;;;;;;;14.53;12.10;;;9.80;99.90;;;;;;5073349;28;20287;-82
2023/01/07 07:22:21;;;;;;;15.00;12.37;;;9.80;99.90;;;;;;5073859;28;20036;-83
2023/01/07 07:24:46;;;;;;;17.30;13.23;;;9.80;99.90;;;;;;5055516;28;20121;-83
2023/01/07 07:27:12;;;;;;;17.20;12.33;;;9.90;99.90;;;;;;5073283;28;20058;-83
2023/01/07 07:29:38;;;;;;;18.73;12.70;;;9.90;99.90;;;;;;5055412;28;20045;-84
2023/01/07 07:32:04;;;;;;;18.17;12.40;;;9.80;99.90;;;;;;5055478;28;20048;-82
2023/01/07 07:34:30;;;;;;;16.67;11.77;;;9.80;99.90;;;;;;5039076;28;20052;-82
2023/01/07 07:36:55;;;;;;;13.33;10.90;;;9.80;99.90;;;;;;5056325;28;20287;-82
2023/01/07 07:39:21;;;;;;;14.60;10.60;;;9.80;99.90;;;;;;5074620;28;20063;-83
2023/01/07 07:41:47;;;;;;;14.37;10.73;;;9.80;99.90;;;;;;5077416;28;20058;-82
2023/01/07 07:44:13;;;;;;;14.10;10.07;;;9.90;99.90;;;;;;5077337;28;20127;-82
2023/01/07 07:46:38;;;;;;;13.53;10.83;;;9.90;99.90;;;;;;5077367;28;20052;-83
2023/01/07 07:49:04;;;;;;;13.00;9.43;;;9.80;99.90;;;;;;5077147;28;20048;-82
2023/01/07 07:51:31;;;;;;;12.83;10.13;;;9.90;99.90;;;;;;5059621;28;20127;-82
2023/01/07 07:53:57;;;;;;;19.23;10.37;;;9.80;99.90;;;;;;5059145;28;20763;-81
2023/01/07 07:56:23;;;;;;;12.80;9.40;;;9.80;99.90;;;;;;5060150;28;20661;-82
2023/01/07 07:58:49;;;;;;;16.43;10.03;;;9.80;99.90;;;;;;5059366;28;20295;-82
2023/01/07 08:01:14;;;;;;;15.57;9.67;;;9.80;99.90;;;;;;5059293;28;20131;-82
2023/01/07 08:03:40;;;;;;;14.13;8.63;;;9.80;99.90;;;;;;5076972;28;20040;-82
2023/01/07 08:06:06;;;;;;;13.40;9.30;;;9.70;99.90;;;;;;5059244;28;20052;-82
2023/01/07 08:08:32;;;;;;;14.43;9.63;;;9.70;99.90;;;;;;5058682;28;20527;-82
2023/01/07 08:10:58;;;;;;;13.67;8.80;;;9.70;99.90;;;;;;5059043;28;20319;-82
2023/01/07 08:13:24;;;;;;;12.00;7.80;;;9.70;99.90;;;;;;5076726;28;20055;-83
2023/01/07 08:15:50;;;;;;;11.87;8.37;;;9.70;99.90;;;;;;5059774;28;20309;-83
2023/01/07 08:18:17;;;;;;;14.97;8.40;;;9.70;99.90;;;;;;5059042;28;20771;-83
2023/01/07 08:20:43;;;;;;;13.70;8.50;;;9.70;99.90;;;;;;5059715;28;20045;-83
2023/01/07 08:23:09;;;;;;;14.03;8.77;;;9.70;99.90;;;;;;5076613;28;20287;-83
2023/01/07 08:25:35;;;;;;;14.87;8.40;;;9.70;99.90;;;;;;5076316;28;20447;-83
2023/01/07 08:28:01;;;;;;;13.00;8.17;;;9.70;99.90;;;;;;5058565;28;20295;-83
2023/01/07 08:30:28;;;;;;;13.20;8.33;;;9.70;99.90;;;;;;5060483;28;20055;-83
2023/01/07 08:32:54;;;;;;;12.77;8.47;;;9.70;99.90;;;;;;5076461;28;20412;-83
2023/01/07 08:35:21;;;;;;;12.33;7.70;;;9.70;99.90;;;;;;5041849;28;20316;-82
2023/01/07 08:37:47;;;;;;;11.83;7.37;;;9.70;99.90;;;;;;5076364;28;20286;-83
2023/01/07 08:40:13;;;;;;;11.30;7.30;;;9.70;99.90;;;;;;5076694;28;20271;-82
2023/01/07 08:42:39;;;;;;;11.97;7.20;;;9.70;99.90;;;;;;5076438;28;20301;-82
2023/01/07 08:45:07;;;;;;;14.33;6.97;;;9.70;99.90;;;;;;5076244;28;20131;-82
2023/01/07 08:47:33;;;;;;;12.43;7.47;;;9.70;99.90;;;;;;5058061;28;20302;-82
2023/01/07 08:49:59;;;;;;;13.87;7.20;;;9.70;99.90;;;;;;5059278;28;20279;-82
2023/01/07 08:52:25;;;;;;;9.80;6.53;;;9.70;99.90;;;;;;5074772;28;20771;-82
2023/01/07 08:54:51;;;;;;;12.67;6.63;;;9.70;99.90;;;;;;5076454;28;20480;-82
2023/01/07 08:57:17;;;;;;;7.87;5.83;;;9.70;99.90;;;;;;5041327;28;20447;-82
2023/01/07 08:59:43;;;;;;;10.23;5.90;;;9.70;99.90;;;;;;5058623;28;20090;-82
2023/01/07 09:02:14;;;;;;;9.63;6.00;;;9.70;99.90;;;;;;5057907;28;20326;-82
2023/01/07 09:04:40;;;;;;;9.83;5.73;;;9.70;99.90;;;;;;5075788;28;20278;-82
2023/01/07 09:07:06;;;;;;;8.30;5.20;;;9.70;99.90;;;;;;5075467;28;20678;-82
2023/01/07 09:09:32;;;;;;;9.47;5.43;;;9.70;99.90;;;;;;5057654;28;20067;-82
2023/01/07 09:11:57;;;;;;;7.30;4.60;;;9.70;99.90;;;;;;5058431;28;20128;-82
2023/01/07 09:14:23;;;;;;;12.07;5.10;;;9.70;99.90;;;;;;5042135;28;20135;-82
2023/01/07 09:16:49;;;;;;;9.07;4.97;;;9.70;99.90;;;;;;5042050;28;20056;-82
2023/01/07 09:19:15;;;;;;;9.13;4.37;;;9.80;99.90;;;;;;5057431;28;20484;-82
2023/01/07 09:21:40;;;;;;;24.80;5.23;;;9.80;99.90;;;;;;5075952;28;20048;-83
2023/01/07 09:24:06;;;;;;;7.77;3.90;;;9.70;99.90;;;;;;5058477;28;20143;-83
2023/01/07 09:26:32;;;;;;;8.60;4.40;;;9.80;99.90;;;;;;5057562;28;20393;-82
2023/01/07 09:28:58;;;;;;;8.57;4.60;;;9.80;99.90;;;;;;5057550;28;20114;-83
2023/01/07 09:31:23;;;;;;;6.87;4.80;;;9.80;99.90;;;;;;5075338;28;20044;-84
2023/01/07 09:33:49;;;;;;;5.60;3.80;;;9.80;99.90;;;;;;5041178;28;20098;-83
2023/01/07 09:36:15;;;;;;;8.47;4.20;;;9.80;99.90;;;;;;5075196;28;20052;-84
2023/01/07 09:38:41;;;;;;;7.83;5.07;;;9.80;99.90;;;;;;5057143;28;20048;-83
2023/01/07 09:41:32;;;;;;;7.93;4.40;;;9.80;99.90;;;;;;5057678;28;20044;-83
2023/01/07 09:44:27;;;;;;;7.20;4.63;;;9.80;99.90;;;;;;5058221;28;20045;-83
2023/01/07 09:46:54;;;;;;;10.47;3.80;;;9.80;99.90;;;;;;5057397;28;20771;-84
2023/01/07 09:49:22;;;;;;;9.50;3.80;;;9.80;99.90;;;;;;5074914;28;20402;-84
2023/01/07 09:52:09;;;;;;;6.70;3.97;;;9.80;99.90;;;;;;5074939;28;20432;-85
2023/01/07 09:54:38;;;;;;;6.07;3.50;;;9.80;99.90;;;;;;5057999;28;20295;-85
2023/01/07 09:57:04;;;;;;;6.80;3.60;;;9.80;99.90;;;;;;5056996;28;20279;-85
2023/01/07 09:59:31;;;;;;;7.60;3.37;;;9.80;99.90;;;;;;5057012;28;20274;-84
2023/01/07 10:02:30;;;;;;;7.60;3.40;;;9.80;99.90;;;;;;5056781;28;20287;-85
2023/01/07 10:05:20;;;;;;;8.23;3.17;;;9.80;99.90;;;;;;5057175;28;20299;-83
2023/01/07 10:08:05;;;;;;;6.23;2.90;;;9.80;99.90;;;;;;5074378;28;20352;-83
2023/01/07 10:10:45;;;;;;;5.60;3.30;;;9.90;99.90;;;;;;5057064;28;20287;-84
2023/01/07 10:13:34;;;;;;;10.50;3.30;;;9.80;99.90;;;;;;5057044;28;20748;-81
2023/01/07 10:16:09;;;;;;;5.93;3.20;;;9.80;99.90;;;;;;5027638;28;20291;-81
2023/01/07 10:18:41;;;;;;;6.20;3.42;;;9.80;99.90;;;;;;5057873;28;20374;-78
2023/01/07 10:21:18;;;;;;;7.80;3.13;;;9.80;99.90;;;;;;5074370;28;20048;-79
2023/01/07 10:23:56;;;;;;;5.37;2.97;;;9.80;99.90;;;;;;5057441;28;20293;-79
2023/01/07 10:26:31;;;;;;;7.63;2.87;;;9.80;99.90;;;;;;5074250;28;20360;-78
2023/01/07 10:29:03;;;;;;;7.50;2.78;;;9.90;99.90;;;;;;5039786;28;20786;-78
2023/01/07 10:31:29;;;;;;;11.77;3.23;;;9.90;99.90;;;;;;5056798;28;20131;-77
2023/01/07 10:33:56;;;;;;;5.70;2.87;;;10.00;99.90;;;;;;5056468;28;20433;-77
2023/01/07 10:36:24;;;;;;;5.47;2.50;;;10.00;99.90;;;;;;5074025;28;20505;-78
2023/01/07 10:39:07;;;;;;;4.50;2.80;;;10.10;99.90;;;;;;5039800;28;20295;-77
2023/01/07 10:41:59;;;;;;;6.93;3.67;;;10.10;99.90;;;;;;5056664;28;20295;-78
2023/01/07 10:44:41;;;;;;;5.23;2.60;;;10.10;99.90;;;;;;5073532;28;20283;-77
2023/01/07 10:47:22;;;;;;;4.37;2.40;;;10.20;99.90;;;;;;5057027;28;20615;-78
2023/01/07 10:50:05;;;;;;;5.00;2.60;;;10.20;99.90;;;;;;5056145;28;20291;-77
2023/01/07 10:52:53;;;;;;;6.70;2.10;;;10.20;99.90;;;;;;5074891;28;20626;-77
2023/01/07 10:55:47;;;;;;;4.73;2.13;;;10.30;99.90;;;;;;5074548;28;20349;-78
2023/01/07 10:58:13;;;;;;;6.23;2.00;;;10.30;99.90;;;;;;5056013;28;20302;-77
2023/01/07 11:00:40;;;;;;;3.80;1.80;;;10.30;99.90;;;;;;5056078;28;20291;-76
2023/01/07 11:03:17;;;;;;;4.27;2.03;;;10.40;99.90;;;;;;5074413;28;20385;-78
2023/01/07 11:05:45;;;;;;;4.60;2.03;;;10.40;99.90;;;;;;5056663;28;20283;-76
2023/01/07 11:08:39;;;;;;;4.50;1.93;;;10.50;99.90;;;;;;5055699;28;20307;-89
2023/01/07 11:11:10;;;;;;;4.10;2.10;;;10.50;99.90;;;;;;5073734;28;20290;-86
2023/01/07 11:13:37;;;;;;;3.93;1.80;;;10.60;99.90;;;;;;5073722;28;20641;-88
2023/01/07 11:16:16;;;;;;;5.77;1.80;;;10.60;99.90;;;;;;5073267;28;20289;-84
2023/01/07 11:18:50;;;;;;;5.93;2.20;;;10.60;99.90;;;;;;5073515;28;20290;-85
2023/01/07 11:21:38;;;;;;;3.78;1.67;;;10.70;99.90;;;;;;5074298;28;20436;-83
2023/01/07 11:24:25;;;;;;;4.03;1.80;;;10.70;99.90;;;;;;5073525;28;20048;-83
2023/01/07 11:26:58;;;;;;;4.30;1.97;;;10.70;99.90;;;;;;5055543;28;20278;-87
2023/01/07 11:29:28;;;;;;;4.03;2.10;;;10.60;99.90;;;;;;5039173;28;20740;-88
2023/01/07 11:31:56;;;;;;;3.80;1.80;;;10.60;99.90;;;;;;5073488;28;20275;-85
2023/01/07 11:35:00;;;;;;;3.53;1.57;;;10.70;99.90;;;;;;5055362;28;20282;-86
2023/01/07 11:37:44;;;;;;;5.23;1.70;;;10.70;99.90;;;;;;5055802;28;20291;-86
2023/01/07 11:40:12;;;;;;;9.60;3.10;;;10.70;99.90;;;;;;5073338;28;20275;-85
2023/01/07 11:42:50;;;;;;;4.57;1.90;;;10.70;99.90;;;;;;5055535;28;20298;-84
2023/01/07 11:45:23;;;;;;;3.47;1.53;;;10.70;99.90;;;;;;5073257;28;20287;-82
2023/01/07 11:47:59;;;;;;;4.13;1.70;;;10.70;99.90;;;;;;5055645;28;20298;-82
2023/01/07 11:50:37;;;;;;;3.60;1.47;;;10.70;99.90;;;;;;5056255;28;20305;-85
2023/01/07 11:53:12;;;;;;;3.43;1.63;;;10.70;99.90;;;;;;5073208;28;20757;-83
2023/01/07 11:55:38;;;;;;;4.82;1.60;;;10.70;99.90;;;;;;5073083;28;20412;-87
2023/01/07 11:58:05;;;;;;;4.13;1.53;;;10.70;99.90;;;;;;5055432;28;20048;-84
2023/01/07 12:00:32;;;;;;;4.90;1.77;;;10.70;99.90;;;;;;5073049;28;20074;-86
2023/01/07 12:03:04;;;;;;;2.93;1.60;;;10.70;99.90;;;;;;5039056;28;20282;-82
2023/01/07 12:05:30;;;;;;;4.83;1.47;;;10.70;99.90;;;;;;5055259;28;20375;-90
2023/01/07 12:07:57;;;;;;;5.20;1.50;;;10.70;99.90;;;;;;5073197;28;20299;-90
2023/01/07 12:10:25;;;;;;;3.13;1.43;;;10.70;99.90;;;;;;5055116;28;20370;-80
2023/01/07 12:12:51;;;;;;;4.13;1.50;;;10.70;99.90;;;;;;5073449;28;20291;-87
2023/01/07 12:15:25;;;;;;;3.10;1.50;;;10.60;99.90;;;;;;5055126;28;20282;-77
2023/01/07 12:18:08;;;;;;;3.30;1.40;;;10.60;99.90;;;;;;5073554;28;20051;-80
2023/01/07 12:21:04;;;;;;;4.77;1.40;;;10.70;99.90;;;;;;5072868;28;20278;-82
2023/01/07 12:23:30;;;;;;;3.77;1.40;;;10.70;99.90;;;;;;5054945;28;20283;-87
2023/01/07 12:26:17;;;;;;;3.17;1.37;;;10.70;99.90;;;;;;5074544;28;20302;-86
2023/01/07 12:29:08;;;;;;;2.33;1.20;;;10.70;99.90;;;;;;5059432;28;20047;-79
2023/01/07 12:31:59;;;;;;;3.10;1.40;;;10.70;99.90;;;;;;5042492;28;20318;-78
2023/01/07 12:34:38;;;;;;;2.80;1.47;;;10.70;99.90;;;;;;5076780;28;20325;-79
2023/01/07 12:37:21;;;;;;;2.23;1.20;;;10.80;99.90;;;;;;5059080;28;20313;-79
2023/01/07 12:39:54;;;;;;;3.53;1.43;;;10.80;99.90;;;;;;5059001;28;20371;-79
2023/01/07 12:42:25;;;;;;;3.77;1.37;;;10.80;99.90;;;;;;5059200;28;20291;-79
2023/01/07 12:44:56;;;;;;;2.37;1.20;;;10.80;99.90;;;;;;5058569;28;20664;-79
2023/01/07 12:47:51;;;;;;;2.27;1.20;;;10.80;99.90;;;;;;5076872;28;20283;-80
2023/01/07 12:50:45;;;;;;;1.60;0.90;;;10.80;99.90;;;;;;5054339;28;20275;-78
2023/01/07 12:53:24;;;;;;;3.83;1.10;;;10.80;99.90;;;;;;5059247;28;20381;-79
2023/01/07 12:56:21;;;;;;;2.53;1.27;;;10.80;99.90;;;;;;5058592;28;20290;-79
2023/01/07 12:59:01;;;;;;;2.07;1.23;;;10.80;99.90;;;;;;5076385;28;20808;-79